sensor_id;sensor_type;location;lat;lon;timestamp;temperature;humidity
38241;DHT22;24037;49.536;8.500;2024-01-10T00:00:00;-6.00;1.00
38241;DHT22;24037;49.536;8.500;2024-01-10T00:02:26;-6.10;1.00
38241;DHT22;24037;49.536;8.500;2024-01-10T00:04:52;-6.10;1.00
38241;DHT22;24037;49.536;8.500;2024-01-10T00:07:18;-6.00;1.00
38241;DHT22;24037;49.536;8.500;2024-01-10T00:09:44;-6.10;1.00
38241;DHT22;24037;49.536;8.500;2024-01-10T00:12:12;-6.20;1.00
38241;DHT22;24037;49.536;8.500;2024-01-10T00:14:38;-6.20;1.00
38241;DHT22;24037;49.536;8.500;2024-01-10T00:17:04;-6.30;1.00
38241;DHT22;24037;49.536;8.500;2024-01-10T00:19:30;-6.30;1.00
38241;DHT22;24037;49.536;8.500;2024-01-10T00:21:56;-6.20;1.00
38241;DHT22;24037;49.536;8.500;2024-01-10T00:24:22;-6.10;1.00
38241;DHT22;24037;49.536;8.500;2024-01-10T00:26:49;-6.10;1.00
38241;DHT22;24037;49.536;8.500;2024-01-10T00:29:15;-6.10;1.00
38241;DHT22;24037;49.536;8.500;2024-01-10T00:31:41;-6.10;1.00
38241;DHT22;24037;49.536;8.500;2024-01-10T00:34:07;-6.10;1.00
38241;DHT22;24037;49.536;8.500;2024-01-10T00:36:33;-6.00;1.00
38241;DHT22;24037;49.536;8.500;2024-01-10T00:38:59;-6.00;1.00
38241;DHT22;24037;49.536;8.500;2024-01-10T00:41:26;-6.00;1.00
38241;DHT22;24037;49.536;8.500;2024-01-10T00:43:52;-6.10;1.00
38241;DHT22;24037;49.536;8.500;2024-01-10T00:46:19;-6.10;1.00
38241;DHT22;24037;49.536;8.500;2024-01-10T00:48:45;-6.10;1.00
38241;DHT22;24037;49.536;8.500;2024-01-10T00:51:12;-6.20;1.00
38241;DHT22;24037;49.536;8.500;2024-01-10T00:53:38;-6.20;1.00
38241;DHT22;24037;49.536;8.500;2024-01-10T00:56:05;-6.20;1.00
38241;DHT22;24037;49.536;8.500;2024-01-10T00:58:31;-6.10;1.00
38241;DHT22;24037;49.536;8.500;2024-01-10T01:00:58;-6.20;1.00
38241;DHT22;24037;49.536;8.500;2024-01-10T01:03:24;-6.10;1.00
38241;DHT22;24037;49.536;8.500;2024-01-10T01:05:50;-6.10;1.00
38241;DHT22;24037;49.536;8.500;2024-01-10T01:08:16;-6.10;1.00
38241;DHT22;24037;49.536;8.500;2024-01-10T01:10:42;-6.10;1.00
38241;DHT22;24037;49.536;8.500;2024-01-10T01:13:08;-6.10;1.00
38241;DHT22;24037;49.536;8.500;2024-01-10T01:15:35;-6.10;1.00
38241;DHT22;24037;49.536;8.500;2024-01-10T01:18:01;-6.10;1.00
38241;DHT22;24037;49.536;8.500;2024-01-10T01:20:27;-6.10;1.00
38241;DHT22;24037;49.536;8.500;2024-01-10T01:22:53;-6.10;1.00
38241;DHT22;24037;49.536;8.500;2024-01-10T01:25:19;-6.10;1.00
38241;DHT22;24037;49.536;8.500;2024-01-10T01:27:45;-6.00;1.00
38241;DHT22;24037;49.536;8.500;2024-01-10T01:30:11;-5.90;1.00
38241;DHT22;24037;49.536;8.500;2024-01-10T01:32:38;-5.90;1.00
38241;DHT22;24037;49.536;8.500;2024-01-10T01:35:04;-5.90;1.00
38241;DHT22;24037;49.536;8.500;2024-01-10T01:37:31;-5.80;1.00
38241;DHT22;24037;49.536;8.500;2024-01-10T01:39:58;-5.80;1.00
38241;DHT22;24037;49.536;8.500;2024-01-10T01:42:24;-5.70;1.00
38241;DHT22;24037;49.536;8.500;2024-01-10T01:44:50;-5.70;1.00
38241;DHT22;24037;49.536;8.500;2024-01-10T01:47:17;-5.80;1.00
38241;DHT22;24037;49.536;8.500;2024-01-10T01:49:43;-5.80;1.00
38241;DHT22;24037;49.536;8.500;2024-01-10T01:52:10;-5.80;1.00
38241;DHT22;24037;49.536;8.500;2024-01-10T01:54:37;-5.80;1.00
38241;DHT22;24037;49.536;8.500;2024-01-10T01:57:03;-5.90;1.00
38241;DHT22;24037;49.536;8.500;2024-01-10T01:59:29;-5.90;1.00
38241;DHT22;24037;49.536;8.500;2024-01-10T02:01:55;-5.90;1.00
38241;DHT22;24037;49.536;8.500;2024-01-10T02:04:23;-5.80;1.00
38241;DHT22;24037;49.536;8.500;2024-01-10T02:06:50;-5.80;1.00
38241;DHT22;24037;49.536;8.500;2024-01-10T02:09:16;-5.80;1.00
38241;DHT22;24037;49.536;8.500;2024-01-10T02:11:42;-5.70;1.00
38241;DHT22;24037;49.536;8.500;2024-01-10T02:14:09;-5.70;1.00
38241;DHT22;24037;49.536;8.500;2024-01-10T02:16:36;-5.70;1.00
38241;DHT22;24037;49.536;8.500;2024-01-10T02:19:17;-5.70;1.00
38241;DHT22;24037;49.536;8.500;2024-01-10T02:21:45;-5.70;1.00
38241;DHT22;24037;49.536;8.500;2024-01-10T02:24:11;-5.70;1.00
38241;DHT22;24037;49.536;8.500;2024-01-10T02:26:39;-5.60;1.00
38241;DHT22;24037;49.536;8.500;2024-01-10T02:29:05;-5.60;1.00
38241;DHT22;24037;49.536;8.500;2024-01-10T02:31:31;-5.60;1.00
38241;DHT22;24037;49.536;8.500;2024-01-10T02:33:57;-5.50;1.00
38241;DHT22;24037;49.536;8.500;2024-01-10T02:36:24;-5.50;1.00
38241;DHT22;24037;49.536;8.500;2024-01-10T02:38:50;-5.50;1.00
38241;DHT22;24037;49.536;8.500;2024-01-10T02:41:16;-5.50;1.00
38241;DHT22;24037;49.536;8.500;2024-01-10T02:43:42;-5.50;1.00
38241;DHT22;24037;49.536;8.500;2024-01-10T02:46:09;-5.60;1.00
38241;DHT22;24037;49.536;8.500;2024-01-10T02:48:35;-5.50;1.00
38241;DHT22;24037;49.536;8.500;2024-01-10T02:51:01;-5.50;1.00
38241;DHT22;24037;49.536;8.500;2024-01-10T02:53:27;-5.50;1.00
38241;DHT22;24037;49.536;8.500;2024-01-10T02:55:54;-5.50;1.00
38241;DHT22;24037;49.536;8.500;2024-01-10T02:58:20;-5.50;1.00
38241;DHT22;24037;49.536;8.500;2024-01-10T03:00:47;-5.50;1.00
38241;DHT22;24037;49.536;8.500;2024-01-10T03:03:14;-5.40;1.00
38241;DHT22;24037;49.536;8.500;2024-01-10T03:05:40;-5.40;1.00
38241;DHT22;24037;49.536;8.500;2024-01-10T03:08:06;-5.30;1.00
38241;DHT22;24037;49.536;8.500;2024-01-10T03:10:32;-5.20;99.90
38241;DHT22;24037;49.536;8.500;2024-01-10T03:12:59;-5.10;99.90
38241;DHT22;24037;49.536;8.500;2024-01-10T03:15:25;-4.80;99.90
38241;DHT22;24037;49.536;8.500;2024-01-10T03:17:51;-4.80;99.90
38241;DHT22;24037;49.536;8.500;2024-01-10T03:20:17;-4.80;99.90
38241;DHT22;24037;49.536;8.500;2024-01-10T03:22:44;-5.00;99.90
38241;DHT22;24037;49.536;8.500;2024-01-10T03:25:10;-5.10;99.90
38241;DHT22;24037;49.536;8.500;2024-01-10T03:27:36;-5.20;99.90
38241;DHT22;24037;49.536;8.500;2024-01-10T03:30:03;-5.20;99.90
38241;DHT22;24037;49.536;8.500;2024-01-10T03:32:29;-5.20;99.90
38241;DHT22;24037;49.536;8.500;2024-01-10T03:34:56;-5.20;99.90
38241;DHT22;24037;49.536;8.500;2024-01-10T03:37:22;-5.20;1.00
38241;DHT22;24037;49.536;8.500;2024-01-10T03:39:48;-5.20;1.00
38241;DHT22;24037;49.536;8.500;2024-01-10T03:42:14;-5.20;1.00
38241;DHT22;24037;49.536;8.500;2024-01-10T03:44:41;-5.30;1.00
38241;DHT22;24037;49.536;8.500;2024-01-10T03:47:07;-5.20;1.00
38241;DHT22;24037;49.536;8.500;2024-01-10T03:49:33;-5.20;1.00
38241;DHT22;24037;49.536;8.500;2024-01-10T03:51:59;-5.20;1.00
38241;DHT22;24037;49.536;8.500;2024-01-10T03:54:26;-5.10;1.00
38241;DHT22;24037;49.536;8.500;2024-01-10T03:56:52;-5.00;1.00
38241;DHT22;24037;49.536;8.500;2024-01-10T03:59:18;-5.00;1.00
38241;DHT22;24037;49.536;8.500;2024-01-10T04:01:44;-5.00;1.00
38241;DHT22;24037;49.536;8.500;2024-01-10T04:04:10;-5.10;1.00
38241;DHT22;24037;49.536;8.500;2024-01-10T04:06:36;-5.10;1.00
38241;DHT22;24037;49.536;8.500;2024-01-10T04:09:03;-5.10;1.00
38241;DHT22;24037;49.536;8.500;2024-01-10T04:11:29;-5.10;1.00
38241;DHT22;24037;49.536;8.500;2024-01-10T04:13:55;-5.10;1.00
38241;DHT22;24037;49.536;8.500;2024-01-10T04:16:21;-5.20;1.00
38241;DHT22;24037;49.536;8.500;2024-01-10T04:18:49;-5.20;1.00
38241;DHT22;24037;49.536;8.500;2024-01-10T04:21:15;-5.30;1.00
38241;DHT22;24037;49.536;8.500;2024-01-10T04:23:41;-5.30;1.00
38241;DHT22;24037;49.536;8.500;2024-01-10T04:26:07;-5.30;1.00
38241;DHT22;24037;49.536;8.500;2024-01-10T04:28:33;-5.30;1.00
38241;DHT22;24037;49.536;8.500;2024-01-10T04:31:00;-5.30;1.00
38241;DHT22;24037;49.536;8.500;2024-01-10T04:33:26;-5.30;1.00
38241;DHT22;24037;49.536;8.500;2024-01-10T04:35:52;-5.30;1.00
38241;DHT22;24037;49.536;8.500;2024-01-10T04:38:18;-5.30;1.00
38241;DHT22;24037;49.536;8.500;2024-01-10T04:40:44;-5.20;1.00
38241;DHT22;24037;49.536;8.500;2024-01-10T04:43:10;-5.20;1.00
38241;DHT22;24037;49.536;8.500;2024-01-10T04:45:36;-5.20;1.00
38241;DHT22;24037;49.536;8.500;2024-01-10T04:48:03;-5.20;1.00
38241;DHT22;24037;49.536;8.500;2024-01-10T04:50:29;-5.00;1.00
38241;DHT22;24037;49.536;8.500;2024-01-10T04:52:55;-5.00;99.90
38241;DHT22;24037;49.536;8.500;2024-01-10T04:55:21;-5.00;99.90
38241;DHT22;24037;49.536;8.500;2024-01-10T04:57:47;-4.90;99.90
38241;DHT22;24037;49.536;8.500;2024-01-10T05:00:14;-4.90;99.90
38241;DHT22;24037;49.536;8.500;2024-01-10T05:02:40;-4.90;99.90
38241;DHT22;24037;49.536;8.500;2024-01-10T05:05:07;-4.90;99.90
38241;DHT22;24037;49.536;8.500;2024-01-10T05:07:33;-4.90;99.90
38241;DHT22;24037;49.536;8.500;2024-01-10T05:09:59;-4.90;99.90
38241;DHT22;24037;49.536;8.500;2024-01-10T05:12:25;-4.90;99.90
38241;DHT22;24037;49.536;8.500;2024-01-10T05:14:52;-4.90;1.00
38241;DHT22;24037;49.536;8.500;2024-01-10T05:17:18;-5.00;99.90
38241;DHT22;24037;49.536;8.500;2024-01-10T05:19:44;-5.00;99.90
38241;DHT22;24037;49.536;8.500;2024-01-10T05:22:11;-5.00;99.90
38241;DHT22;24037;49.536;8.500;2024-01-10T05:24:38;-5.00;99.90
38241;DHT22;24037;49.536;8.500;2024-01-10T05:27:04;-5.10;99.90
38241;DHT22;24037;49.536;8.500;2024-01-10T05:29:30;-5.10;1.00
38241;DHT22;24037;49.536;8.500;2024-01-10T05:31:56;-5.10;1.00
38241;DHT22;24037;49.536;8.500;2024-01-10T05:34:22;-5.10;1.00
38241;DHT22;24037;49.536;8.500;2024-01-10T05:36:48;-5.10;1.00
38241;DHT22;24037;49.536;8.500;2024-01-10T05:39:15;-5.10;1.00
38241;DHT22;24037;49.536;8.500;2024-01-10T05:41:42;-5.20;1.00
38241;DHT22;24037;49.536;8.500;2024-01-10T05:44:09;-5.20;1.00
38241;DHT22;24037;49.536;8.500;2024-01-10T05:46:35;-5.20;1.00
38241;DHT22;24037;49.536;8.500;2024-01-10T05:49:01;-5.20;1.00
38241;DHT22;24037;49.536;8.500;2024-01-10T05:51:31;-5.20;1.00
38241;DHT22;24037;49.536;8.500;2024-01-10T05:53:57;-5.20;1.00
38241;DHT22;24037;49.536;8.500;2024-01-10T05:56:23;-5.20;1.00
38241;DHT22;24037;49.536;8.500;2024-01-10T05:58:50;-5.10;1.00
38241;DHT22;24037;49.536;8.500;2024-01-10T06:01:17;-5.10;1.00
38241;DHT22;24037;49.536;8.500;2024-01-10T06:03:43;-5.10;99.90
38241;DHT22;24037;49.536;8.500;2024-01-10T06:06:09;-5.00;99.90
38241;DHT22;24037;49.536;8.500;2024-01-10T06:08:35;-5.10;99.90
38241;DHT22;24037;49.536;8.500;2024-01-10T06:11:04;-5.00;99.90
38241;DHT22;24037;49.536;8.500;2024-01-10T06:13:35;-5.00;99.90
38241;DHT22;24037;49.536;8.500;2024-01-10T06:16:03;-5.00;99.90
38241;DHT22;24037;49.536;8.500;2024-01-10T06:18:30;-5.00;99.90
38241;DHT22;24037;49.536;8.500;2024-01-10T06:20:56;-5.00;99.90
38241;DHT22;24037;49.536;8.500;2024-01-10T06:23:22;-5.00;99.90
38241;DHT22;24037;49.536;8.500;2024-01-10T06:25:48;-5.00;99.90
38241;DHT22;24037;49.536;8.500;2024-01-10T06:28:14;-5.00;99.90
38241;DHT22;24037;49.536;8.500;2024-01-10T06:30:40;-5.00;99.90
38241;DHT22;24037;49.536;8.500;2024-01-10T06:33:07;-5.00;99.90
38241;DHT22;24037;49.536;8.500;2024-01-10T06:35:33;-5.00;99.90
38241;DHT22;24037;49.536;8.500;2024-01-10T06:38:00;-4.90;99.90
38241;DHT22;24037;49.536;8.500;2024-01-10T06:40:29;-4.90;99.90
38241;DHT22;24037;49.536;8.500;2024-01-10T06:42:56;-4.90;99.90
38241;DHT22;24037;49.536;8.500;2024-01-10T06:45:22;-4.90;99.90
38241;DHT22;24037;49.536;8.500;2024-01-10T06:47:48;-4.90;99.90
38241;DHT22;24037;49.536;8.500;2024-01-10T06:50:15;-4.90;99.90
38241;DHT22;24037;49.536;8.500;2024-01-10T06:52:41;-4.80;99.90
38241;DHT22;24037;49.536;8.500;2024-01-10T06:55:08;-4.70;99.90
38241;DHT22;24037;49.536;8.500;2024-01-10T06:57:34;-4.70;99.90
38241;DHT22;24037;49.536;8.500;2024-01-10T07:00:00;-4.60;99.90
38241;DHT22;24037;49.536;8.500;2024-01-10T07:02:29;-4.60;99.90
38241;DHT22;24037;49.536;8.500;2024-01-10T07:04:55;-4.60;99.90
38241;DHT22;24037;49.536;8.500;2024-01-10T07:07:21;-4.60;99.90
38241;DHT22;24037;49.536;8.500;2024-01-10T07:09:47;-4.50;99.90
38241;DHT22;24037;49.536;8.500;2024-01-10T07:12:13;-4.50;99.90
38241;DHT22;24037;49.536;8.500;2024-01-10T07:14:40;-4.50;99.90
38241;DHT22;24037;49.536;8.500;2024-01-10T07:17:07;-4.50;99.90
38241;DHT22;24037;49.536;8.500;2024-01-10T07:19:33;-4.50;99.90
38241;DHT22;24037;49.536;8.500;2024-01-10T07:21:59;-4.50;99.90
38241;DHT22;24037;49.536;8.500;2024-01-10T07:24:26;-4.50;99.90
38241;DHT22;24037;49.536;8.500;2024-01-10T07:26:53;-4.50;99.90
38241;DHT22;24037;49.536;8.500;2024-01-10T07:29:19;-4.50;99.90
38241;DHT22;24037;49.536;8.500;2024-01-10T07:31:45;-4.40;99.90
38241;DHT22;24037;49.536;8.500;2024-01-10T07:34:11;-4.40;99.90
38241;DHT22;24037;49.536;8.500;2024-01-10T07:36:44;-4.40;99.90
38241;DHT22;24037;49.536;8.500;2024-01-10T07:39:10;-4.40;99.90
38241;DHT22;24037;49.536;8.500;2024-01-10T07:41:36;-4.40;99.90
38241;DHT22;24037;49.536;8.500;2024-01-10T07:44:02;-4.40;99.90
38241;DHT22;24037;49.536;8.500;2024-01-10T07:46:29;-4.40;99.90
38241;DHT22;24037;49.536;8.500;2024-01-10T07:48:55;-4.40;99.90
38241;DHT22;24037;49.536;8.500;2024-01-10T07:51:21;-4.40;99.90
38241;DHT22;24037;49.536;8.500;2024-01-10T07:53:47;-4.40;99.90
38241;DHT22;24037;49.536;8.500;2024-01-10T07:56:14;-4.30;99.90
38241;DHT22;24037;49.536;8.500;2024-01-10T07:58:40;-4.30;99.90
38241;DHT22;24037;49.536;8.500;2024-01-10T08:01:06;-4.20;99.90
38241;DHT22;24037;49.536;8.500;2024-01-10T08:03:33;-4.20;99.90
38241;DHT22;24037;49.536;8.500;2024-01-10T08:05:59;-4.10;99.90
38241;DHT22;24037;49.536;8.500;2024-01-10T08:08:25;-4.10;99.90
38241;DHT22;24037;49.536;8.500;2024-01-10T08:10:51;-4.10;99.90
38241;DHT22;24037;49.536;8.500;2024-01-10T08:13:18;-4.10;99.90
38241;DHT22;24037;49.536;8.500;2024-01-10T08:15:45;-4.00;99.90
38241;DHT22;24037;49.536;8.500;2024-01-10T08:18:11;-4.00;99.90
38241;DHT22;24037;49.536;8.500;2024-01-10T08:20:37;-3.90;99.90
38241;DHT22;24037;49.536;8.500;2024-01-10T08:23:04;-3.90;99.90
38241;DHT22;24037;49.536;8.500;2024-01-10T08:25:30;-3.90;99.90
38241;DHT22;24037;49.536;8.500;2024-01-10T08:27:56;-3.80;99.90
38241;DHT22;24037;49.536;8.500;2024-01-10T08:30:24;-3.70;99.90
38241;DHT22;24037;49.536;8.500;2024-01-10T08:32:50;-3.70;99.90
38241;DHT22;24037;49.536;8.500;2024-01-10T08:35:16;-3.70;99.90
38241;DHT22;24037;49.536;8.500;2024-01-10T08:37:42;-3.60;99.90
38241;DHT22;24037;49.536;8.500;2024-01-10T08:40:13;-3.60;99.90
38241;DHT22;24037;49.536;8.500;2024-01-10T08:42:41;-3.60;99.90
38241;DHT22;24037;49.536;8.500;2024-01-10T08:45:08;-3.50;99.90
38241;DHT22;24037;49.536;8.500;2024-01-10T08:47:35;-3.50;99.90
38241;DHT22;24037;49.536;8.500;2024-01-10T08:50:03;-3.50;99.90
38241;DHT22;24037;49.536;8.500;2024-01-10T08:52:31;-3.40;99.90
38241;DHT22;24037;49.536;8.500;2024-01-10T08:54:57;-3.40;99.90
38241;DHT22;24037;49.536;8.500;2024-01-10T08:57:24;-3.30;99.90
38241;DHT22;24037;49.536;8.500;2024-01-10T08:59:53;-3.30;99.90
38241;DHT22;24037;49.536;8.500;2024-01-10T09:02:19;-3.20;99.90
38241;DHT22;24037;49.536;8.500;2024-01-10T09:04:45;-3.10;99.90
38241;DHT22;24037;49.536;8.500;2024-01-10T09:07:12;-3.00;99.90
38241;DHT22;24037;49.536;8.500;2024-01-10T09:09:38;-2.90;99.90
38241;DHT22;24037;49.536;8.500;2024-01-10T09:12:05;-2.80;99.90
38241;DHT22;24037;49.536;8.500;2024-01-10T09:14:31;-2.80;99.90
38241;DHT22;24037;49.536;8.500;2024-01-10T09:16:57;-2.70;99.90
38241;DHT22;24037;49.536;8.500;2024-01-10T09:19:29;-2.60;99.90
38241;DHT22;24037;49.536;8.500;2024-01-10T09:21:56;-2.60;99.90
38241;DHT22;24037;49.536;8.500;2024-01-10T09:24:23;-2.50;99.90
38241;DHT22;24037;49.536;8.500;2024-01-10T09:26:53;-2.40;99.90
38241;DHT22;24037;49.536;8.500;2024-01-10T09:29:19;-2.40;99.90
38241;DHT22;24037;49.536;8.500;2024-01-10T09:31:45;-2.30;99.90
38241;DHT22;24037;49.536;8.500;2024-01-10T09:34:12;-2.10;99.90
38241;DHT22;24037;49.536;8.500;2024-01-10T09:36:38;-2.00;99.90
38241;DHT22;24037;49.536;8.500;2024-01-10T09:39:04;-2.00;99.90
38241;DHT22;24037;49.536;8.500;2024-01-10T09:41:37;-1.90;99.90
38241;DHT22;24037;49.536;8.500;2024-01-10T09:44:06;-1.80;99.90
38241;DHT22;24037;49.536;8.500;2024-01-10T09:46:34;-1.70;99.90
38241;DHT22;24037;49.536;8.500;2024-01-10T09:49:03;-1.70;99.90
38241;DHT22;24037;49.536;8.500;2024-01-10T09:51:31;-1.60;99.90
38241;DHT22;24037;49.536;8.500;2024-01-10T09:54:02;-1.50;99.90
38241;DHT22;24037;49.536;8.500;2024-01-10T09:56:28;-1.40;99.90
38241;DHT22;24037;49.536;8.500;2024-01-10T09:58:55;-1.20;99.90
38241;DHT22;24037;49.536;8.500;2024-01-10T10:01:24;-1.20;99.90
38241;DHT22;24037;49.536;8.500;2024-01-10T10:03:51;-1.10;99.90
38241;DHT22;24037;49.536;8.500;2024-01-10T10:06:17;-1.10;99.90
38241;DHT22;24037;49.536;8.500;2024-01-10T10:08:43;-1.10;99.90
38241;DHT22;24037;49.536;8.500;2024-01-10T10:11:13;-1.10;99.90
38241;DHT22;24037;49.536;8.500;2024-01-10T10:13:40;-1.10;99.90
38241;DHT22;24037;49.536;8.500;2024-01-10T10:16:08;-1.00;99.90
38241;DHT22;24037;49.536;8.500;2024-01-10T10:18:35;-0.90;99.90
38241;DHT22;24037;49.536;8.500;2024-01-10T10:21:09;-0.80;99.90
38241;DHT22;24037;49.536;8.500;2024-01-10T10:23:43;-0.70;99.90
38241;DHT22;24037;49.536;8.500;2024-01-10T10:26:13;-0.60;99.90
38241;DHT22;24037;49.536;8.500;2024-01-10T10:28:48;-0.50;99.90
38241;DHT22;24037;49.536;8.500;2024-01-10T10:31:15;-0.50;99.90
38241;DHT22;24037;49.536;8.500;2024-01-10T10:33:44;-0.50;99.90
38241;DHT22;24037;49.536;8.500;2024-01-10T10:36:13;-0.40;99.90
38241;DHT22;24037;49.536;8.500;2024-01-10T10:38:40;-0.40;99.90
38241;DHT22;24037;49.536;8.500;2024-01-10T10:41:06;-0.30;99.90
38241;DHT22;24037;49.536;8.500;2024-01-10T10:43:39;-0.30;99.90
38241;DHT22;24037;49.536;8.500;2024-01-10T10:46:07;-0.20;99.90
38241;DHT22;24037;49.536;8.500;2024-01-10T10:48:36;0.00;99.90
38241;DHT22;24037;49.536;8.500;2024-01-10T10:54:04;0.10;99.90
38241;DHT22;24037;49.536;8.500;2024-01-10T10:56:33;0.00;99.90
38241;DHT22;24037;49.536;8.500;2024-01-10T10:59:03;0.00;99.90
38241;DHT22;24037;49.536;8.500;2024-01-10T11:01:31;-0.20;99.90
38241;DHT22;24037;49.536;8.500;2024-01-10T11:03:58;-0.30;99.90
38241;DHT22;24037;49.536;8.500;2024-01-10T11:06:24;-0.40;99.90
38241;DHT22;24037;49.536;8.500;2024-01-10T11:08:57;-0.40;99.90
38241;DHT22;24037;49.536;8.500;2024-01-10T11:12:20;-0.20;99.90
38241;DHT22;24037;49.536;8.500;2024-01-10T11:19:53;0.10;99.90
38241;DHT22;24037;49.536;8.500;2024-01-10T11:25:11;0.20;99.90
38241;DHT22;24037;49.536;8.500;2024-01-10T11:27:38;0.20;99.90
38241;DHT22;24037;49.536;8.500;2024-01-10T11:30:05;0.30;99.90
38241;DHT22;24037;49.536;8.500;2024-01-10T11:32:32;0.40;99.90
38241;DHT22;24037;49.536;8.500;2024-01-10T11:35:03;0.40;99.90
38241;DHT22;24037;49.536;8.500;2024-01-10T11:37:42;0.30;99.90
38241;DHT22;24037;49.536;8.500;2024-01-10T11:40:10;0.30;99.90
38241;DHT22;24037;49.536;8.500;2024-01-10T11:42:43;0.20;99.90
38241;DHT22;24037;49.536;8.500;2024-01-10T11:45:10;0.20;99.90
38241;DHT22;24037;49.536;8.500;2024-01-10T11:47:39;0.30;99.90
38241;DHT22;24037;49.536;8.500;2024-01-10T11:50:08;0.40;99.90
38241;DHT22;24037;49.536;8.500;2024-01-10T11:52:36;0.40;99.90
38241;DHT22;24037;49.536;8.500;2024-01-10T11:55:03;0.40;99.90
38241;DHT22;24037;49.536;8.500;2024-01-10T11:57:30;0.50;99.90
38241;DHT22;24037;49.536;8.500;2024-01-10T12:00:00;0.50;99.90
38241;DHT22;24037;49.536;8.500;2024-01-10T12:02:26;0.60;99.90
38241;DHT22;24037;49.536;8.500;2024-01-10T12:04:54;0.70;99.90
38241;DHT22;24037;49.536;8.500;2024-01-10T12:07:21;0.70;99.90
38241;DHT22;24037;49.536;8.500;2024-01-10T12:09:47;0.70;99.90
38241;DHT22;24037;49.536;8.500;2024-01-10T12:12:15;0.70;99.90
38241;DHT22;24037;49.536;8.500;2024-01-10T12:14:42;0.70;99.90
38241;DHT22;24037;49.536;8.500;2024-01-10T12:17:12;0.70;99.90
38241;DHT22;24037;49.536;8.500;2024-01-10T12:19:38;0.70;99.90
38241;DHT22;24037;49.536;8.500;2024-01-10T12:22:05;0.70;99.90
38241;DHT22;24037;49.536;8.500;2024-01-10T12:24:31;0.80;99.90
38241;DHT22;24037;49.536;8.500;2024-01-10T12:26:58;0.80;99.90
38241;DHT22;24037;49.536;8.500;2024-01-10T12:29:25;0.90;99.90
38241;DHT22;24037;49.536;8.500;2024-01-10T12:31:52;0.90;99.90
38241;DHT22;24037;49.536;8.500;2024-01-10T12:34:19;0.70;99.90
38241;DHT22;24037;49.536;8.500;2024-01-10T12:36:47;0.60;99.90
38241;DHT22;24037;49.536;8.500;2024-01-10T12:39:14;0.50;99.90
38241;DHT22;24037;49.536;8.500;2024-01-10T12:41:41;0.60;99.90
38241;DHT22;24037;49.536;8.500;2024-01-10T12:44:07;0.70;99.90
38241;DHT22;24037;49.536;8.500;2024-01-10T12:46:33;0.60;99.90
38241;DHT22;24037;49.536;8.500;2024-01-10T12:49:04;0.70;99.90
38241;DHT22;24037;49.536;8.500;2024-01-10T12:51:32;0.70;99.90
38241;DHT22;24037;49.536;8.500;2024-01-10T12:53:59;0.80;99.90
38241;DHT22;24037;49.536;8.500;2024-01-10T12:56:29;0.80;99.90
38241;DHT22;24037;49.536;8.500;2024-01-10T12:58:55;0.80;99.90
38241;DHT22;24037;49.536;8.500;2024-01-10T13:01:24;0.80;99.90
38241;DHT22;24037;49.536;8.500;2024-01-10T13:03:51;0.90;99.90
38241;DHT22;24037;49.536;8.500;2024-01-10T13:06:18;0.90;99.90
38241;DHT22;24037;49.536;8.500;2024-01-10T13:08:48;0.90;99.90
38241;DHT22;24037;49.536;8.500;2024-01-10T13:11:15;0.90;99.90
38241;DHT22;24037;49.536;8.500;2024-01-10T13:13:41;1.00;99.90
38241;DHT22;24037;49.536;8.500;2024-01-10T13:16:09;1.00;99.90
38241;DHT22;24037;49.536;8.500;2024-01-10T13:18:39;0.90;99.90
38241;DHT22;24037;49.536;8.500;2024-01-10T13:21:05;0.90;99.90
38241;DHT22;24037;49.536;8.500;2024-01-10T13:23:32;1.00;99.90
38241;DHT22;24037;49.536;8.500;2024-01-10T13:25:59;1.00;99.90
38241;DHT22;24037;49.536;8.500;2024-01-10T13:28:25;1.00;99.90
38241;DHT22;24037;49.536;8.500;2024-01-10T13:30:54;1.00;99.90
38241;DHT22;24037;49.536;8.500;2024-01-10T13:33:22;1.00;99.90
38241;DHT22;24037;49.536;8.500;2024-01-10T13:35:48;1.00;99.90
38241;DHT22;24037;49.536;8.500;2024-01-10T13:38:16;1.00;99.90
38241;DHT22;24037;49.536;8.500;2024-01-10T13:40:42;0.90;99.90
38241;DHT22;24037;49.536;8.500;2024-01-10T13:43:08;1.00;99.90
38241;DHT22;24037;49.536;8.500;2024-01-10T13:45:35;1.00;99.90
38241;DHT22;24037;49.536;8.500;2024-01-10T13:48:01;0.90;99.90
38241;DHT22;24037;49.536;8.500;2024-01-10T13:50:27;0.90;99.90
38241;DHT22;24037;49.536;8.500;2024-01-10T13:52:55;1.00;99.90
38241;DHT22;24037;49.536;8.500;2024-01-10T13:55:21;1.00;99.90
38241;DHT22;24037;49.536;8.500;2024-01-10T13:57:49;1.10;99.90
38241;DHT22;24037;49.536;8.500;2024-01-10T14:00:15;1.20;99.90
38241;DHT22;24037;49.536;8.500;2024-01-10T14:02:42;1.20;99.90
38241;DHT22;24037;49.536;8.500;2024-01-10T14:05:09;1.30;99.90
38241;DHT22;24037;49.536;8.500;2024-01-10T14:07:36;1.30;99.90
38241;DHT22;24037;49.536;8.500;2024-01-10T14:10:02;1.20;99.90
38241;DHT22;24037;49.536;8.500;2024-01-10T14:12:29;1.30;99.90
38241;DHT22;24037;49.536;8.500;2024-01-10T14:14:55;1.30;99.90
38241;DHT22;24037;49.536;8.500;2024-01-10T14:17:22;1.30;99.90
38241;DHT22;24037;49.536;8.500;2024-01-10T14:19:48;1.40;99.90
38241;DHT22;24037;49.536;8.500;2024-01-10T14:22:17;1.30;99.90
38241;DHT22;24037;49.536;8.500;2024-01-10T14:24:44;1.30;99.90
38241;DHT22;24037;49.536;8.500;2024-01-10T14:27:10;1.20;99.90
38241;DHT22;24037;49.536;8.500;2024-01-10T14:29:36;1.00;99.90
38241;DHT22;24037;49.536;8.500;2024-01-10T14:32:02;1.00;99.90
38241;DHT22;24037;49.536;8.500;2024-01-10T14:34:29;0.90;99.90
38241;DHT22;24037;49.536;8.500;2024-01-10T14:36:55;0.80;99.90
38241;DHT22;24037;49.536;8.500;2024-01-10T14:39:22;0.80;99.90
38241;DHT22;24037;49.536;8.500;2024-01-10T14:41:49;0.80;99.90
38241;DHT22;24037;49.536;8.500;2024-01-10T14:44:15;0.70;99.90
38241;DHT22;24037;49.536;8.500;2024-01-10T14:46:41;0.60;99.90
38241;DHT22;24037;49.536;8.500;2024-01-10T14:49:08;0.50;99.90
38241;DHT22;24037;49.536;8.500;2024-01-10T14:51:34;0.50;99.90
38241;DHT22;24037;49.536;8.500;2024-01-10T14:54:00;0.40;99.90
38241;DHT22;24037;49.536;8.500;2024-01-10T14:56:26;0.40;99.90
38241;DHT22;24037;49.536;8.500;2024-01-10T14:58:52;0.30;99.90
38241;DHT22;24037;49.536;8.500;2024-01-10T15:01:18;0.30;99.90
38241;DHT22;24037;49.536;8.500;2024-01-10T15:03:46;0.20;99.90
38241;DHT22;24037;49.536;8.500;2024-01-10T15:06:12;0.20;99.90
38241;DHT22;24037;49.536;8.500;2024-01-10T15:08:41;0.20;99.90
38241;DHT22;24037;49.536;8.500;2024-01-10T15:11:07;0.10;99.90
38241;DHT22;24037;49.536;8.500;2024-01-10T15:13:38;0.00;99.90
38241;DHT22;24037;49.536;8.500;2024-01-10T15:16:04;0.00;99.90
38241;DHT22;24037;49.536;8.500;2024-01-10T15:18:31;-0.10;99.90
38241;DHT22;24037;49.536;8.500;2024-01-10T15:20:59;-0.10;99.90
38241;DHT22;24037;49.536;8.500;2024-01-10T15:23:25;-0.20;99.90
38241;DHT22;24037;49.536;8.500;2024-01-10T15:25:51;-0.20;99.90
38241;DHT22;24037;49.536;8.500;2024-01-10T15:28:17;-0.30;99.90
38241;DHT22;24037;49.536;8.500;2024-01-10T15:30:43;-0.50;99.90
38241;DHT22;24037;49.536;8.500;2024-01-10T15:33:10;-0.60;99.90
38241;DHT22;24037;49.536;8.500;2024-01-10T15:35:37;-0.60;99.90
38241;DHT22;24037;49.536;8.500;2024-01-10T15:38:03;-0.70;99.90
38241;DHT22;24037;49.536;8.500;2024-01-10T15:40:29;-0.80;99.90
38241;DHT22;24037;49.536;8.500;2024-01-10T15:42:55;-0.90;99.90
38241;DHT22;24037;49.536;8.500;2024-01-10T15:45:22;-0.90;99.90
38241;DHT22;24037;49.536;8.500;2024-01-10T15:47:48;-0.90;99.90